Time;durP1;ratioP1;P1;durP2;ratioP2;P2;SDS_P1;SDS_P2;PMS_P1;PMS_P2;Temp;Humidity;BMP_temperature;BMP_pressure;BME280_temperature;BME280_humidity;BME280_pressure;Samples;Min_cycle;Max_cycle;Signal;HPM_P1;HPM_P2
2022/04/12 00:00:38;;;;;;;7.72;3.47;;;6.70;99.90;;;;;;5052854;28;20052;-54
2022/04/12 00:03:05;;;;;;;8.90;3.42;;;6.60;99.90;;;;;;5052738;28;20123;-51
2022/04/12 00:05:35;;;;;;;7.53;3.10;;;6.60;99.90;;;;;;5052116;28;20124;-51
2022/04/12 00:08:03;;;;;;;9.82;3.45;;;6.60;99.90;;;;;;5052802;28;20424;-51
2022/04/12 00:10:29;;;;;;;9.20;3.80;;;6.60;99.90;;;;;;5052801;28;20117;-53
2022/04/12 00:12:56;;;;;;;7.82;3.53;;;6.50;99.90;;;;;;5052736;28;20041;-55
2022/04/12 00:15:22;;;;;;;7.50;3.70;;;6.60;99.90;;;;;;5052573;28;20049;-53
2022/04/12 00:20:33;;;;;;;8.27;3.38;;;6.50;99.90;;;;;;5052548;28;20124;-54
2022/04/12 00:22:59;;;;;;;8.93;3.75;;;6.50;99.90;;;;;;5052439;28;20420;-53
2022/04/12 00:25:26;;;;;;;7.97;3.75;;;6.50;99.90;;;;;;5052501;28;20036;-53
2022/04/12 00:27:55;;;;;;;8.18;3.63;;;6.50;99.90;;;;;;5052470;28;20115;-54
2022/04/12 00:30:22;;;;;;;8.15;3.85;;;6.50;99.90;;;;;;5052472;28;20048;-54
2022/04/12 00:32:50;;;;;;;10.55;3.97;;;6.50;99.90;;;;;;5052270;28;20128;-55
2022/04/12 00:35:19;;;;;;;9.15;4.10;;;6.50;99.90;;;;;;5052455;28;20111;-55
2022/04/12 00:37:46;;;;;;;9.43;3.88;;;6.60;99.90;;;;;;5052095;28;20142;-51
2022/04/12 00:40:13;;;;;;;9.93;4.15;;;6.40;99.90;;;;;;5052374;28;20079;-55
2022/04/12 00:42:39;;;;;;;13.18;3.92;;;6.40;99.90;;;;;;5050767;28;20075;-54
2022/04/12 00:45:06;;;;;;;9.35;4.15;;;6.40;99.90;;;;;;5052004;28;20037;-52
2022/04/12 00:47:31;;;;;;;10.73;4.30;;;6.40;99.90;;;;;;5052231;28;20040;-52
2022/04/12 00:49:57;;;;;;;10.05;4.90;;;6.30;99.90;;;;;;5052052;28;20370;-54
2022/04/12 00:52:25;;;;;;;10.23;4.53;;;6.40;99.90;;;;;;5060666;28;20040;-52
2022/04/12 00:54:53;;;;;;;9.07;3.92;;;6.40;99.90;;;;;;5071955;28;20107;-52
2022/04/12 00:57:18;;;;;;;9.65;4.25;;;6.30;99.90;;;;;;5071873;28;20123;-53
2022/04/12 00:59:45;;;;;;;7.85;4.40;;;6.30;99.90;;;;;;5071718;28;20206;-53
2022/04/12 01:02:11;;;;;;;8.02;4.05;;;6.30;99.90;;;;;;5071862;28;20048;-54
2022/04/12 01:04:37;;;;;;;10.25;4.20;;;6.30;99.90;;;;;;5071948;28;20097;-54
2022/04/12 01:07:03;;;;;;;7.28;3.63;;;6.30;99.90;;;;;;5071895;28;20040;-55
2022/04/12 01:09:29;;;;;;;9.30;4.28;;;6.20;99.90;;;;;;5071802;28;20037;-55
2022/04/12 01:11:57;;;;;;;8.77;4.13;;;6.20;99.90;;;;;;5071836;28;20055;-55
2022/04/12 01:14:24;;;;;;;7.93;4.10;;;6.20;99.90;;;;;;5071649;28;20040;-52
2022/04/12 01:16:51;;;;;;;9.85;4.35;;;6.20;99.90;;;;;;5072401;28;20152;-52
2022/04/12 01:19:17;;;;;;;10.02;5.00;;;6.10;99.90;;;;;;5076082;28;20044;-54
2022/04/12 01:22:04;;;;;;;8.80;4.85;;;6.10;99.90;;;;;;5076096;28;20043;-52
2022/04/12 01:24:32;;;;;;;10.38;4.38;;;6.10;99.90;;;;;;5058200;28;20036;-55
2022/04/12 01:26:57;;;;;;;9.07;4.15;;;6.10;99.90;;;;;;5055846;28;20128;-52
2022/04/12 01:29:24;;;;;;;10.98;4.55;;;6.00;99.90;;;;;;5055554;28;20131;-54
2022/04/12 01:31:50;;;;;;;9.82;4.57;;;6.00;99.90;;;;;;5055696;28;20075;-51
2022/04/12 01:34:16;;;;;;;9.40;4.50;;;6.00;99.90;;;;;;5055691;28;20049;-54
2022/04/12 01:36:41;;;;;;;9.32;4.03;;;5.90;99.90;;;;;;5055580;28;20106;-52
2022/04/12 01:39:07;;;;;;;10.38;4.53;;;5.90;99.90;;;;;;5055381;28;20067;-53
2022/04/12 01:41:33;;;;;;;12.63;4.65;;;5.90;99.90;;;;;;5055345;28;20044;-51
2022/04/12 01:43:58;;;;;;;9.52;4.47;;;5.90;99.90;;;;;;5070719;28;20087;-51
2022/04/12 01:46:24;;;;;;;11.68;4.95;;;5.80;99.90;;;;;;5055348;28;20159;-51
2022/04/12 01:48:50;;;;;;;10.30;5.60;;;5.80;99.90;;;;;;5055382;28;20071;-53
2022/04/12 01:51:16;;;;;;;9.75;4.55;;;5.80;99.90;;;;;;5070705;28;20048;-51
2022/04/12 01:53:42;;;;;;;11.45;5.20;;;5.80;99.90;;;;;;5074562;28;20070;-51
2022/04/12 01:56:08;;;;;;;8.65;4.13;;;5.80;99.90;;;;;;5075081;28;20047;-52
2022/04/12 01:58:35;;;;;;;9.32;5.05;;;5.80;99.90;;;;;;5075320;28;20054;-54
2022/04/12 02:01:02;;;;;;;9.05;4.85;;;5.80;99.90;;;;;;5075192;28;20051;-53
2022/04/12 02:03:28;;;;;;;11.02;4.90;;;5.70;99.90;;;;;;5075025;28;20037;-52
2022/04/12 02:05:54;;;;;;;9.55;4.90;;;5.70;99.90;;;;;;5074998;28;20044;-51
2022/04/12 02:08:21;;;;;;;12.13;5.30;;;5.70;99.90;;;;;;5073497;28;20055;-51
2022/04/12 02:10:47;;;;;;;11.20;5.07;;;5.60;99.90;;;;;;5075029;28;20078;-54
2022/04/12 02:13:12;;;;;;;12.57;5.82;;;5.60;99.90;;;;;;5075109;28;20032;-52
2022/04/12 02:15:38;;;;;;;9.60;5.32;;;5.60;99.90;;;;;;5074981;28;20037;-51
2022/04/12 02:18:04;;;;;;;10.90;6.20;;;5.60;99.90;;;;;;5074898;28;20043;-51
2022/04/12 02:20:30;;;;;;;10.82;5.18;;;5.60;99.90;;;;;;5074767;28;20455;-54
2022/04/12 02:22:55;;;;;;;15.00;5.40;;;5.50;99.90;;;;;;5071322;28;20091;-54
2022/04/12 02:25:21;;;;;;;10.18;5.38;;;5.60;99.90;;;;;;5054804;28;20041;-51
2022/04/12 02:27:47;;;;;;;10.65;5.38;;;5.50;99.90;;;;;;5054212;28;20041;-51
2022/04/12 02:30:14;;;;;;;9.50;5.18;;;5.50;99.90;;;;;;5054468;28;20049;-51
2022/04/12 02:32:40;;;;;;;12.75;5.80;;;5.50;99.90;;;;;;5054712;28;20081;-51
2022/04/12 02:35:07;;;;;;;11.07;5.90;;;5.40;99.90;;;;;;5054441;28;20052;-53
2022/04/12 02:37:33;;;;;;;13.82;7.15;;;5.50;99.90;;;;;;5054896;28;20050;-53
2022/04/12 02:39:58;;;;;;;14.65;6.85;;;5.40;99.90;;;;;;5069734;28;20432;-54
2022/04/12 02:42:24;;;;;;;13.15;6.25;;;5.40;99.90;;;;;;5054519;28;20076;-53
2022/04/12 02:44:50;;;;;;;11.73;5.95;;;5.40;99.90;;;;;;5054479;28;20366;-51
2022/04/12 02:47:15;;;;;;;11.95;5.85;;;5.50;99.90;;;;;;5054306;28;20121;-54
2022/04/12 02:49:41;;;;;;;10.35;5.80;;;5.40;99.90;;;;;;5054384;28;20049;-54
2022/04/12 02:52:08;;;;;;;10.73;6.35;;;5.40;99.90;;;;;;5060710;28;20361;-55
2022/04/12 02:54:34;;;;;;;13.25;6.30;;;5.50;99.90;;;;;;5074192;28;20045;-51
2022/04/12 02:57:00;;;;;;;11.85;6.28;;;5.40;99.90;;;;;;5074256;28;20067;-54
2022/04/12 02:59:26;;;;;;;12.90;6.30;;;5.40;99.90;;;;;;5074353;28;20484;-53
2022/04/12 03:01:52;;;;;;;14.05;6.85;;;5.40;99.90;;;;;;5073999;28;20055;-53
2022/04/12 03:04:17;;;;;;;13.55;6.53;;;5.40;99.90;;;;;;5072622;28;20048;-54
2022/04/12 03:06:43;;;;;;;13.57;6.82;;;5.50;99.90;;;;;;5074321;28;20044;-54
2022/04/12 03:09:09;;;;;;;11.55;6.28;;;5.40;99.90;;;;;;5072780;28;20037;-54
2022/04/12 03:11:35;;;;;;;11.52;6.82;;;5.40;99.90;;;;;;5073649;28;20082;-53
2022/04/12 03:14:02;;;;;;;10.45;6.32;;;5.40;99.90;;;;;;5072420;28;20048;-55
2022/04/12 03:16:28;;;;;;;11.52;6.57;;;5.40;99.90;;;;;;5073693;28;20102;-54
2022/04/12 03:18:54;;;;;;;13.63;7.47;;;5.40;99.90;;;;;;5073675;28;20040;-54
2022/04/12 03:21:20;;;;;;;13.60;7.57;;;5.40;99.90;;;;;;5073345;28;20036;-51
2022/04/12 03:23:45;;;;;;;13.50;6.72;;;5.40;99.90;;;;;;5063241;28;20036;-52
2022/04/12 03:26:11;;;;;;;12.85;7.20;;;5.40;99.90;;;;;;5053135;28;20041;-51
2022/04/12 03:28:36;;;;;;;17.60;6.93;;;5.40;99.90;;;;;;5053458;28;20079;-51
2022/04/12 03:31:02;;;;;;;13.70;6.63;;;5.40;99.90;;;;;;5052934;28;20405;-51
2022/04/12 03:33:28;;;;;;;13.00;6.72;;;5.40;99.90;;;;;;5053323;28;20158;-53
2022/04/12 03:35:53;;;;;;;12.20;6.75;;;5.30;99.90;;;;;;5053103;28;20402;-54
2022/04/12 03:38:19;;;;;;;13.27;7.43;;;5.30;99.90;;;;;;5068805;28;20261;-52
2022/04/12 03:40:46;;;;;;;13.95;6.57;;;5.30;99.90;;;;;;5052481;28;20041;-54
2022/04/12 03:43:12;;;;;;;11.82;6.95;;;5.30;99.90;;;;;;5053292;28;20398;-54
2022/04/12 03:45:38;;;;;;;13.73;6.78;;;5.20;99.90;;;;;;5053111;28;20045;-54
2022/04/12 03:48:04;;;;;;;14.82;8.20;;;5.30;99.90;;;;;;5053072;28;20608;-55
2022/04/12 03:50:31;;;;;;;13.25;7.32;;;5.30;99.90;;;;;;5052789;28;20048;-55
2022/04/12 03:52:56;;;;;;;11.55;7.15;;;5.20;99.90;;;;;;5068234;28;20052;-55
2022/04/12 03:55:31;;;;;;;10.55;7.13;;;5.20;99.90;;;;;;5052812;28;20032;-54
2022/04/12 03:58:02;;;;;;;12.98;7.15;;;5.20;99.90;;;;;;5051819;28;20040;-54
2022/04/12 04:00:28;;;;;;;13.40;7.18;;;5.20;99.90;;;;;;5053102;28;20072;-54
2022/04/12 04:02:54;;;;;;;14.88;7.25;;;5.20;99.90;;;;;;5051437;28;20041;-53
2022/04/12 04:05:21;;;;;;;12.18;7.47;;;5.20;99.90;;;;;;5052650;28;20037;-51
2022/04/12 04:07:47;;;;;;;14.50;7.90;;;5.20;99.90;;;;;;5052615;28;20483;-51
2022/04/12 04:10:13;;;;;;;15.98;7.90;;;5.20;99.90;;;;;;5053021;28;20040;-52
2022/04/12 04:12:38;;;;;;;14.43;7.30;;;5.10;99.90;;;;;;5051139;28;20509;-51
2022/04/12 04:15:11;;;;;;;12.90;8.30;;;5.10;99.90;;;;;;5052501;28;20129;-53
2022/04/12 04:17:39;;;;;;;14.80;8.52;;;5.10;99.90;;;;;;5052262;28;20112;-51
2022/04/12 04:20:05;;;;;;;13.98;7.47;;;5.10;99.90;;;;;;5052627;28;20040;-51
2022/04/12 04:22:31;;;;;;;13.07;8.18;;;5.10;99.90;;;;;;5052294;28;20102;-54
2022/04/12 04:24:56;;;;;;;15.13;7.70;;;5.10;99.90;;;;;;5052317;28;20087;-51
2022/04/12 04:27:28;;;;;;;14.35;7.82;;;5.10;99.90;;;;;;5052284;28;20478;-53
2022/04/12 04:29:56;;;;;;;14.65;8.70;;;5.10;99.90;;;;;;5052015;28;20076;-51
2022/04/12 04:32:22;;;;;;;15.75;8.77;;;5.10;99.90;;;;;;5052532;28;20465;-52
2022/04/12 04:34:48;;;;;;;15.68;8.48;;;5.10;99.90;;;;;;5052449;28;20056;-55
2022/04/12 04:37:13;;;;;;;14.65;8.45;;;5.00;99.90;;;;;;5052098;28;20040;-55
2022/04/12 04:39:39;;;;;;;13.63;8.27;;;5.00;99.90;;;;;;5052102;28;20041;-53
2022/04/12 04:42:05;;;;;;;15.27;8.45;;;5.00;99.90;;;;;;5051899;28;20045;-55
2022/04/12 04:44:31;;;;;;;19.63;9.07;;;5.00;99.90;;;;;;5051984;28;20040;-52
2022/04/12 04:46:57;;;;;;;19.02;8.70;;;4.90;99.90;;;;;;5050739;28;20037;-53
2022/04/12 04:49:23;;;;;;;15.95;8.30;;;4.90;99.90;;;;;;5051834;28;20531;-54
2022/04/12 04:51:48;;;;;;;13.55;7.82;;;4.90;99.90;;;;;;5051658;28;20041;-52
2022/04/12 04:54:14;;;;;;;15.73;8.85;;;4.90;99.90;;;;;;5051672;28;20033;-52
2022/04/12 04:56:40;;;;;;;15.45;8.82;;;4.90;99.90;;;;;;5051739;28;20076;-54
2022/04/12 04:59:06;;;;;;;15.43;8.90;;;4.90;99.90;;;;;;5051715;28;20481;-54
2022/04/12 05:01:31;;;;;;;14.95;8.55;;;4.80;99.90;;;;;;5051566;28;20045;-55
2022/04/12 05:03:57;;;;;;;14.35;8.65;;;4.80;99.90;;;;;;5051637;28;20041;-54
2022/04/12 05:06:23;;;;;;;13.77;8.15;;;4.80;99.90;;;;;;5050405;28;20114;-51
2022/04/12 05:08:48;;;;;;;14.48;8.38;;;4.80;99.90;;;;;;5051643;28;20036;-55
2022/04/12 05:11:14;;;;;;;16.88;9.02;;;4.80;99.90;;;;;;5051699;28;20037;-52
2022/04/12 05:13:40;;;;;;;17.83;9.52;;;4.80;99.90;;;;;;5051887;28;20111;-52
2022/04/12 05:16:05;;;;;;;18.63;8.95;;;4.80;99.90;;;;;;5051757;28;20135;-51
2022/04/12 05:18:31;;;;;;;16.17;8.65;;;4.90;99.90;;;;;;5051900;28;20130;-55
2022/04/12 05:20:57;;;;;;;13.35;8.65;;;4.90;99.90;;;;;;5051827;28;20045;-54
2022/04/12 05:23:22;;;;;;;14.10;8.18;;;4.90;99.90;;;;;;5051787;28;20378;-57
2022/04/12 05:25:48;;;;;;;16.83;8.73;;;5.00;99.90;;;;;;5051629;28;20563;-52
2022/04/12 05:28:14;;;;;;;13.65;7.90;;;5.00;99.90;;;;;;5051713;28;20448;-54
2022/04/12 05:30:40;;;;;;;15.55;9.15;;;5.00;99.90;;;;;;5051493;28;20091;-53
2022/04/12 05:33:05;;;;;;;15.05;9.13;;;5.10;99.90;;;;;;5050184;28;20045;-53
2022/04/12 05:35:31;;;;;;;14.00;8.68;;;5.20;99.90;;;;;;5050228;28;20056;-51
2022/04/12 05:37:58;;;;;;;14.98;8.88;;;5.30;99.90;;;;;;5050268;28;20037;-54
2022/04/12 05:40:24;;;;;;;15.82;9.20;;;5.40;99.90;;;;;;5050451;28;20404;-51
2022/04/12 05:42:51;;;;;;;16.35;9.65;;;5.50;99.90;;;;;;5050173;28;20111;-54
2022/04/12 05:45:17;;;;;;;14.23;9.13;;;5.60;99.90;;;;;;5050174;28;20083;-53
2022/04/12 05:47:51;;;;;;;15.35;9.65;;;5.80;99.90;;;;;;5049100;28;20076;-51
2022/04/12 05:50:19;;;;;;;17.58;9.32;;;5.80;99.90;;;;;;5050180;28;20037;-51
2022/04/12 05:52:45;;;;;;;17.25;10.07;;;5.90;99.90;;;;;;5061544;28;20040;-52
2022/04/12 05:55:15;;;;;;;16.42;10.63;;;6.00;99.90;;;;;;5070121;28;20039;-54
2022/04/12 05:58:00;;;;;;;17.15;8.82;;;6.00;99.90;;;;;;5070008;28;20044;-54
2022/04/12 06:00:28;;;;;;;14.43;9.80;;;6.10;99.90;;;;;;5070088;28;20048;-54
2022/04/12 06:02:54;;;;;;;14.00;9.15;;;6.20;99.90;;;;;;5070869;28;20128;-53
2022/04/12 06:05:22;;;;;;;14.30;8.63;;;6.20;99.90;;;;;;5072491;28;20083;-54
2022/04/12 06:07:48;;;;;;;14.63;9.48;;;6.30;99.90;;;;;;5052373;28;20053;-51
2022/04/12 06:10:15;;;;;;;15.40;8.90;;;6.40;99.90;;;;;;5040252;28;20033;-51
2022/04/12 06:12:41;;;;;;;14.93;8.63;;;6.40;99.90;;;;;;5043573;28;20033;-53
2022/04/12 06:15:08;;;;;;;15.57;9.52;;;6.40;99.90;;;;;;5049678;28;20033;-53
2022/04/12 06:17:35;;;;;;;15.85;10.48;;;6.50;99.90;;;;;;5053506;28;20052;-53
2022/04/12 06:20:05;;;;;;;15.43;9.65;;;6.60;99.90;;;;;;5053646;28;20416;-54
2022/04/12 06:22:31;;;;;;;15.68;8.35;;;6.60;99.90;;;;;;5053921;28;20430;-53
2022/04/12 06:24:57;;;;;;;16.35;9.25;;;6.70;99.90;;;;;;5033703;28;20042;-54
2022/04/12 06:27:36;;;;;;;15.73;9.52;;;6.80;99.90;;;;;;5033427;28;20037;-54
2022/04/12 06:30:14;;;;;;;17.33;9.00;;;6.90;99.90;;;;;;5033259;28;20076;-53
2022/04/12 06:32:41;;;;;;;15.90;9.73;;;6.90;99.90;;;;;;5033412;28;20112;-55
2022/04/12 06:35:09;;;;;;;15.63;9.20;;;7.00;99.90;;;;;;5033154;28;20041;-51
2022/04/12 06:37:35;;;;;;;17.58;9.38;;;7.10;99.90;;;;;;5033535;28;20436;-54
2022/04/12 06:40:02;;;;;;;15.45;8.70;;;7.20;99.90;;;;;;5031890;28;20312;-51
2022/04/12 06:42:28;;;;;;;13.85;8.57;;;7.20;99.90;;;;;;5032047;28;20057;-54
2022/04/12 06:44:54;;;;;;;14.93;9.80;;;7.30;99.90;;;;;;5038564;28;20049;-52
2022/04/12 06:47:20;;;;;;;15.38;9.60;;;7.30;99.90;;;;;;5041794;28;20544;-52
2022/04/12 06:49:46;;;;;;;15.43;9.25;;;7.40;99.90;;;;;;5050682;28;20045;-53
2022/04/12 06:52:13;;;;;;;14.88;8.55;;;7.40;99.90;;;;;;5059800;28;20036;-50
2022/04/12 06:54:39;;;;;;;16.63;9.55;;;7.40;99.90;;;;;;5073121;28;20101;-50
2022/04/12 06:57:05;;;;;;;15.35;9.18;;;7.50;99.90;;;;;;5072733;28;20397;-52
2022/04/12 06:59:32;;;;;;;16.35;9.75;;;7.50;99.90;;;;;;5072707;28;20051;-54
2022/04/12 07:01:58;;;;;;;14.55;8.98;;;7.50;99.90;;;;;;5072762;28;20041;-54
2022/04/12 07:04:23;;;;;;;12.82;8.68;;;7.60;99.90;;;;;;5071334;28;20040;-54
2022/04/12 07:06:50;;;;;;;13.80;8.18;;;7.70;99.90;;;;;;5072382;28;20348;-51
2022/04/12 07:09:20;;;;;;;15.13;9.13;;;7.70;99.90;;;;;;5072520;28;20033;-51
2022/04/12 07:11:46;;;;;;;14.75;8.93;;;7.70;99.90;;;;;;5072342;28;20090;-52
2022/04/12 07:14:12;;;;;;;15.02;8.68;;;7.80;99.90;;;;;;5071335;28;20338;-52
2022/04/12 07:16:38;;;;;;;15.80;8.90;;;7.80;99.90;;;;;;5070282;28;20123;-53
2022/04/12 07:19:03;;;;;;;18.02;9.80;;;7.80;99.90;;;;;;5072657;28;20119;-50
2022/04/12 07:21:30;;;;;;;17.13;9.70;;;7.90;99.90;;;;;;5071514;28;20461;-54
2022/04/12 07:23:59;;;;;;;23.85;10.25;;;8.00;99.90;;;;;;5060733;28;20048;-51
2022/04/12 07:26:26;;;;;;;16.63;9.45;;;8.10;99.90;;;;;;5052182;28;20477;-53
2022/04/12 07:28:51;;;;;;;16.30;9.02;;;8.20;99.90;;;;;;5052366;28;20098;-54
2022/04/12 07:31:17;;;;;;;16.83;9.98;;;8.20;99.90;;;;;;5052058;28;20463;-50
2022/04/12 07:33:43;;;;;;;18.52;10.50;;;8.30;99.90;;;;;;5051935;28;20064;-52
2022/04/12 07:36:08;;;;;;;15.90;9.88;;;8.40;99.90;;;;;;5052238;28;20048;-53
2022/04/12 07:38:34;;;;;;;15.43;10.23;;;8.50;99.90;;;;;;5052331;28;20033;-50
2022/04/12 07:41:00;;;;;;;14.10;9.30;;;8.60;99.90;;;;;;5051978;28;20124;-54
2022/04/12 07:43:25;;;;;;;16.70;9.23;;;8.70;99.90;;;;;;5051896;28;20068;-54
2022/04/12 07:45:51;;;;;;;16.88;9.45;;;8.90;99.90;;;;;;5052392;28;20518;-52
2022/04/12 07:48:16;;;;;;;13.80;8.70;;;9.00;99.90;;;;;;5052011;28;20040;-53
2022/04/12 07:50:42;;;;;;;14.45;9.60;;;9.10;99.90;;;;;;5045460;28;20128;-54
2022/04/12 07:53:08;;;;;;;16.83;9.45;;;9.20;99.90;;;;;;5065455;28;20084;-53
2022/04/12 07:55:34;;;;;;;17.27;9.63;;;9.20;99.90;;;;;;5071711;28;20089;-54
2022/04/12 07:57:59;;;;;;;22.42;10.18;;;9.30;99.90;;;;;;5070432;28;20047;-51
2022/04/12 08:00:25;;;;;;;17.52;10.32;;;9.50;99.90;;;;;;5071603;28;20436;-52
2022/04/12 08:02:51;;;;;;;16.02;8.93;;;9.50;99.90;;;;;;5071477;28;20036;-53
2022/04/12 08:05:16;;;;;;;24.35;10.15;;;9.60;99.90;;;;;;5071983;28;20033;-52
2022/04/12 08:07:48;;;;;;;17.52;9.70;;;9.70;99.90;;;;;;5070381;28;20123;-54
2022/04/12 08:10:15;;;;;;;14.80;9.25;;;9.70;99.90;;;;;;5069516;28;20050;-54
2022/04/12 08:12:42;;;;;;;14.45;9.65;;;9.90;99.90;;;;;;5048298;28;20366;-50
2022/04/12 08:15:09;;;;;;;16.45;9.07;;;9.90;99.90;;;;;;5036414;28;20504;-53
2022/04/12 08:17:34;;;;;;;16.67;9.88;;;10.00;99.90;;;;;;5046937;28;20040;-54
2022/04/12 08:20:00;;;;;;;15.15;9.27;;;10.10;99.90;;;;;;5051327;28;20432;-54
2022/04/12 08:22:26;;;;;;;16.55;9.80;;;10.30;99.90;;;;;;5036462;28;20052;-51
2022/04/12 08:24:52;;;;;;;14.32;9.15;;;10.30;99.90;;;;;;5043972;28;20045;-51
2022/04/12 08:27:18;;;;;;;14.93;9.43;;;10.40;99.90;;;;;;5050627;28;20049;-51
2022/04/12 08:29:45;;;;;;;16.35;9.55;;;10.40;99.90;;;;;;5050616;28;20057;-54
2022/04/12 08:32:11;;;;;;;19.17;9.90;;;10.50;99.90;;;;;;5051024;28;20568;-53
2022/04/12 08:34:37;;;;;;;15.23;9.20;;;10.60;99.90;;;;;;5051013;28;20041;-54
2022/04/12 08:37:05;;;;;;;16.88;9.18;;;10.80;99.90;;;;;;5051064;28;20072;-54
2022/04/12 08:39:31;;;;;;;17.20;9.95;;;10.90;99.90;;;;;;5050899;28;20041;-54
2022/04/12 08:42:00;;;;;;;15.75;8.77;;;11.10;99.90;;;;;;5050970;28;20122;-53
2022/04/12 08:44:26;;;;;;;14.40;8.77;;;11.00;99.90;;;;;;5050780;28;20067;-54
2022/04/12 08:46:55;;;;;;;14.38;9.32;;;11.00;99.90;;;;;;5050626;28;20088;-53
2022/04/12 08:49:22;;;;;;;14.60;8.80;;;11.10;99.90;;;;;;5050953;28;20393;-54
2022/04/12 08:51:48;;;;;;;15.45;8.75;;;11.20;99.90;;;;;;5065960;28;20044;-47
2022/04/12 08:54:16;;;;;;;13.45;8.85;;;11.20;99.90;;;;;;5050721;28;20048;-46
2022/04/12 08:56:45;;;;;;;16.08;9.32;;;11.20;99.90;;;;;;5050484;28;20430;-46
2022/04/12 08:59:11;;;;;;;15.75;8.73;;;11.30;99.90;;;;;;5050645;28;20052;-47
2022/04/12 09:01:38;;;;;;;17.25;9.02;;;11.30;99.90;;;;;;5050353;28;20398;-47
2022/04/12 09:04:04;;;;;;;15.63;9.02;;;11.50;99.90;;;;;;5065949;28;20048;-46
2022/04/12 09:06:30;;;;;;;14.43;8.98;;;11.60;99.90;;;;;;5050307;28;20045;-48
2022/04/12 09:09:13;;;;;;;15.18;10.40;;;11.70;99.90;;;;;;5050124;28;20684;-47
2022/04/12 09:11:42;;;;;;;17.83;9.32;;;11.70;99.90;;;;;;5052105;28;20047;-46
2022/04/12 09:14:13;;;;;;;13.48;8.80;;;11.80;99.90;;;;;;5051726;28;20515;-47
2022/04/12 09:16:45;;;;;;;13.57;8.70;;;11.70;99.90;;;;;;5051822;28;20051;-46
2022/04/12 09:19:11;;;;;;;15.57;9.98;;;11.80;99.90;;;;;;5051815;28;20049;-47
2022/04/12 09:21:46;;;;;;;17.35;9.20;;;11.90;99.90;;;;;;5051512;28;20618;-47
2022/04/12 09:24:20;;;;;;;17.35;10.07;;;11.90;99.90;;;;;;5051560;28;20123;-47
2022/04/12 09:26:57;;;;;;;15.07;9.27;;;12.00;99.90;;;;;;5050215;28;20052;-46
2022/04/12 09:29:28;;;;;;;14.40;9.00;;;12.20;99.90;;;;;;5051746;28;20037;-46
2022/04/12 09:31:58;;;;;;;17.37;9.40;;;12.20;99.90;;;;;;5050287;28;20505;-46
2022/04/12 09:34:25;;;;;;;14.60;9.20;;;12.40;99.90;;;;;;5051447;28;20650;-46
2022/04/12 09:36:51;;;;;;;15.15;9.25;;;12.50;99.90;;;;;;5051896;28;20045;-46
2022/04/12 09:39:20;;;;;;;14.27;9.15;;;12.50;99.90;;;;;;5054807;28;20067;-47
2022/04/12 09:41:49;;;;;;;15.07;9.23;;;12.70;99.90;;;;;;5055698;28;20062;-46
2022/04/12 09:44:19;;;;;;;14.05;8.85;;;12.80;99.90;;;;;;5055246;28;20041;-46
2022/04/12 09:46:45;;;;;;;14.18;9.07;;;12.90;99.90;;;;;;5055289;28;20045;-47
2022/04/12 09:49:11;;;;;;;14.57;9.27;;;13.00;99.90;;;;;;5055423;28;20060;-48
2022/04/12 09:51:38;;;;;;;13.80;8.18;;;13.10;99.90;;;;;;5057365;28;20037;-47
2022/04/12 09:54:08;;;;;;;12.30;8.73;;;13.10;99.90;;;;;;5075551;28;20456;-46
2022/04/12 09:56:36;;;;;;;14.60;10.07;;;13.20;99.90;;;;;;5075393;28;20446;-47
2022/04/12 09:59:08;;;;;;;15.32;9.63;;;13.40;99.90;;;;;;5073832;28;20045;-46
2022/04/12 10:01:39;;;;;;;13.98;8.93;;;13.40;99.90;;;;;;5075060;28;20102;-46
2022/04/12 10:04:08;;;;;;;16.38;9.35;;;13.50;99.90;;;;;;5075463;28;20048;-46
2022/04/12 10:06:39;;;;;;;16.95;9.45;;;13.50;99.90;;;;;;5075150;28;20400;-49
2022/04/12 10:09:07;;;;;;;15.20;9.63;;;13.60;99.90;;;;;;5075155;28;20064;-47
2022/04/12 10:11:35;;;;;;;15.45;9.68;;;13.70;99.90;;;;;;5075115;28;20033;-46
2022/04/12 10:14:01;;;;;;;16.17;9.85;;;13.80;99.90;;;;;;5074979;28;20041;-51
2022/04/12 10:16:27;;;;;;;17.42;10.10;;;13.80;99.90;;;;;;5073470;28;20128;-46
2022/04/12 10:18:54;;;;;;;15.50;9.82;;;13.90;99.90;;;;;;5074900;28;20370;-46
2022/04/12 10:21:25;;;;;;;13.18;8.60;;;14.00;99.90;;;;;;5074817;28;20448;-48
2022/04/12 10:23:54;;;;;;;13.73;9.80;;;14.20;99.90;;;;;;5063169;28;20452;-45
2022/04/12 10:26:23;;;;;;;15.18;9.65;;;14.10;99.90;;;;;;5035360;28;20042;-46
2022/04/12 10:29:04;;;;;;;13.75;8.93;;;14.20;99.90;;;;;;5043792;28;20037;-49
2022/04/12 10:31:31;;;;;;;14.83;9.77;;;14.40;99.90;;;;;;5052163;28;20057;-48
2022/04/12 10:34:05;;;;;;;15.65;9.88;;;14.40;99.90;;;;;;5054638;28;20044;-46
2022/04/12 10:36:56;;;;;;;14.23;9.60;;;14.40;99.90;;;;;;5054587;28;20504;-47
2022/04/12 10:39:30;;;;;;;14.17;9.03;;;14.40;99.90;;;;;;5054482;28;20517;-47
2022/04/12 10:41:57;;;;;;;16.73;10.35;;;14.70;99.90;;;;;;5054656;28;20278;-48
2022/04/12 10:44:23;;;;;;;13.25;9.02;;;14.70;99.90;;;;;;5054399;28;20041;-47
2022/04/12 10:46:51;;;;;;;14.10;9.30;;;14.80;99.90;;;;;;5046811;28;20060;-47
2022/04/12 10:49:21;;;;;;;15.35;9.88;;;14.90;99.90;;;;;;5033983;28;20037;-47
2022/04/12 10:52:00;;;;;;;14.35;9.30;;;15.00;99.90;;;;;;5052942;28;20028;-47
2022/04/12 10:54:34;;;;;;;16.70;9.43;;;15.10;99.90;;;;;;5054063;28;20043;-48
2022/04/12 10:57:24;;;;;;;16.20;9.52;;;15.20;99.90;;;;;;5054294;28;20037;-47
2022/04/12 11:00:10;;;;;;;14.38;9.00;;;15.30;99.90;;;;;;5053723;28;20040;-47
2022/04/12 11:02:46;;;;;;;15.05;8.90;;;15.40;99.90;;;;;;5053837;28;20389;-48
2022/04/12 11:05:33;;;;;;;14.85;9.40;;;15.50;99.90;;;;;;5053695;28;20052;-47
2022/04/12 11:08:00;;;;;;;21.08;10.68;;;15.60;99.90;;;;;;5053891;28;20126;-48
2022/04/12 11:10:26;;;;;;;12.68;8.88;;;15.50;99.90;;;;;;5050546;28;20370;-50
2022/04/12 11:13:10;;;;;;;13.93;9.18;;;15.60;99.90;;;;;;5036785;28;20044;-49
2022/04/12 11:15:37;;;;;;;15.25;9.88;;;15.70;99.90;;;;;;5050044;28;20047;-49
2022/04/12 11:18:15;;;;;;;13.98;9.40;;;15.80;99.90;;;;;;5053800;28;20048;-47
2022/04/12 11:20:57;;;;;;;16.02;9.88;;;15.70;99.90;;;;;;5053735;28;20370;-46
2022/04/12 11:23:52;;;;;;;17.25;11.73;;;15.60;99.90;;;;;;5046474;28;20126;-48
2022/04/12 11:26:28;;;;;;;15.05;9.70;;;15.70;99.90;;;;;;5032656;28;20060;-49
2022/04/12 11:28:57;;;;;;;13.32;9.23;;;15.80;99.90;;;;;;5032805;28;20045;-46
2022/04/12 11:31:22;;;;;;;14.93;9.98;;;15.80;99.90;;;;;;5033647;28;20409;-47
2022/04/12 11:33:49;;;;;;;14.57;10.15;;;15.80;99.90;;;;;;5033452;28;20045;-47
2022/04/12 11:36:19;;;;;;;17.08;9.52;;;15.90;99.90;;;;;;5033621;28;20048;-47
2022/04/12 11:38:45;;;;;;;13.48;9.27;;;16.00;99.90;;;;;;5036314;28;20450;-46
2022/04/12 11:41:10;;;;;;;14.07;9.20;;;16.10;99.90;;;;;;5043556;28;20068;-46
2022/04/12 11:43:36;;;;;;;14.23;9.23;;;16.10;99.90;;;;;;5041360;28;20037;-47
2022/04/12 11:46:02;;;;;;;13.48;9.07;;;16.20;99.90;;;;;;5034439;28;20041;-47
2022/04/12 11:48:32;;;;;;;15.68;9.82;;;16.30;99.90;;;;;;5048982;28;20631;-46
2022/04/12 11:51:06;;;;;;;15.57;9.00;;;16.40;99.90;;;;;;5048542;28;20147;-46
2022/04/12 11:53:32;;;;;;;15.82;10.10;;;16.30;99.90;;;;;;5069195;28;20401;-48
2022/04/12 11:56:02;;;;;;;16.75;10.15;;;16.30;99.90;;;;;;5072957;28;20036;-49
2022/04/12 11:58:32;;;;;;;16.05;10.18;;;16.20;99.90;;;;;;5072912;28;20480;-46
2022/04/12 12:00:58;;;;;;;15.55;9.68;;;16.20;99.90;;;;;;5072342;28;20510;-49
2022/04/12 12:03:24;;;;;;;15.80;10.15;;;16.20;99.90;;;;;;5071747;28;20469;-46
2022/04/12 12:05:50;;;;;;;15.90;9.80;;;16.40;99.90;;;;;;5071277;28;20075;-46
2022/04/12 12:08:20;;;;;;;15.35;9.93;;;16.30;99.90;;;;;;5072556;28;20162;-46
2022/04/12 12:10:46;;;;;;;19.80;10.65;;;16.40;99.90;;;;;;5072859;28;20040;-50
2022/04/12 12:13:13;;;;;;;16.98;10.77;;;16.50;99.90;;;;;;5072752;28;20412;-46
2022/04/12 12:15:39;;;;;;;16.83;9.73;;;16.40;99.90;;;;;;5071262;28;20473;-48
2022/04/12 12:18:07;;;;;;;16.08;10.48;;;16.50;99.90;;;;;;5072665;28;20051;-47
2022/04/12 12:20:35;;;;;;;15.07;9.65;;;16.60;99.90;;;;;;5071209;28;20607;-47
2022/04/12 12:23:09;;;;;;;16.45;10.80;;;16.80;99.90;;;;;;5068532;28;20028;-47
2022/04/12 12:25:37;;;;;;;14.85;10.05;;;16.80;99.90;;;;;;5051077;28;20106;-47
2022/04/12 12:28:12;;;;;;;15.32;9.93;;;16.80;99.90;;;;;;5052151;28;20481;-46
2022/04/12 12:30:38;;;;;;;14.75;10.40;;;16.90;99.90;;;;;;5052391;28;20416;-48
2022/04/12 12:33:03;;;;;;;17.63;10.98;;;16.90;99.90;;;;;;5052490;28;20124;-48
2022/04/12 12:35:30;;;;;;;14.63;10.00;;;17.10;99.90;;;;;;5052088;28;20040;-47
2022/04/12 12:38:07;;;;;;;15.35;9.45;;;17.20;99.90;;;;;;5052438;28;20404;-47
2022/04/12 12:40:33;;;;;;;14.63;9.45;;;17.20;99.90;;;;;;5051998;28;20485;-47
2022/04/12 12:43:02;;;;;;;16.63;9.77;;;17.00;99.90;;;;;;5052108;28;20044;-46
2022/04/12 12:45:27;;;;;;;15.38;10.18;;;17.10;99.90;;;;;;5052045;28;20091;-50
2022/04/12 12:47:55;;;;;;;13.20;9.90;;;17.10;99.90;;;;;;5051707;28;20041;-50